sensor_id;sensor_type;location;lat;lon;timestamp;pressure;altitude;pressure_sealevel;temperature;humidity
42125;BME280;27787;44.594;11.046;2024-01-15T00:01:49;100186.19;;;2.91;100.00
42125;BME280;27787;44.594;11.046;2024-01-15T00:04:40;100177.44;;;2.89;100.00
42125;BME280;27787;44.594;11.046;2024-01-15T00:07:25;100157.41;;;2.87;100.00
42125;BME280;27787;44.594;11.046;2024-01-15T00:10:09;100163.16;;;2.75;100.00
42125;BME280;27787;44.594;11.046;2024-01-15T00:12:53;100149.03;;;2.69;100.00
42125;BME280;27787;44.594;11.046;2024-01-15T00:15:37;100151.56;;;2.65;100.00
42125;BME280;27787;44.594;11.046;2024-01-15T00:18:21;100147.31;;;2.69;100.00
42125;BME280;27787;44.594;11.046;2024-01-15T00:21:06;100136.28;;;2.78;100.00
42125;BME280;27787;44.594;11.046;2024-01-15T00:23:51;100139.00;;;2.82;100.00
42125;BME280;27787;44.594;11.046;2024-01-15T00:26:35;100123.25;;;2.78;100.00
42125;BME280;27787;44.594;11.046;2024-01-15T00:29:20;100120.41;;;2.70;100.00
42125;BME280;27787;44.594;11.046;2024-01-15T00:32:04;100129.00;;;2.66;100.00
42125;BME280;27787;44.594;11.046;2024-01-15T00:34:48;100124.34;;;2.56;100.00
42125;BME280;27787;44.594;11.046;2024-01-15T00:37:32;100125.09;;;2.52;100.00
42125;BME280;27787;44.594;11.046;2024-01-15T00:40:15;100109.44;;;2.50;100.00
42125;BME280;27787;44.594;11.046;2024-01-15T00:43:00;100099.97;;;2.54;100.00
42125;BME280;27787;44.594;11.046;2024-01-15T00:45:45;100100.16;;;2.60;100.00
42125;BME280;27787;44.594;11.046;2024-01-15T00:48:29;100106.19;;;2.59;100.00
42125;BME280;27787;44.594;11.046;2024-01-15T00:51:13;100097.34;;;2.52;100.00
42125;BME280;27787;44.594;11.046;2024-01-15T00:53:57;100092.03;;;2.49;100.00
42125;BME280;27787;44.594;11.046;2024-01-15T00:56:41;100091.25;;;2.52;100.00
42125;BME280;27787;44.594;11.046;2024-01-15T00:59:26;100084.50;;;2.60;100.00
42125;BME280;27787;44.594;11.046;2024-01-15T01:02:10;100092.47;;;2.64;100.00
42125;BME280;27787;44.594;11.046;2024-01-15T01:04:54;100085.66;;;2.70;100.00
42125;BME280;27787;44.594;11.046;2024-01-15T01:07:38;100093.47;;;2.70;100.00
42125;BME280;27787;44.594;11.046;2024-01-15T01:10:23;100087.34;;;2.67;100.00
42125;BME280;27787;44.594;11.046;2024-01-15T01:13:08;100089.09;;;2.69;100.00
42125;BME280;27787;44.594;11.046;2024-01-15T01:15:52;100083.06;;;2.70;100.00
42125;BME280;27787;44.594;11.046;2024-01-15T01:18:36;100092.66;;;2.72;100.00
42125;BME280;27787;44.594;11.046;2024-01-15T01:21:20;100080.59;;;2.74;100.00
42125;BME280;27787;44.594;11.046;2024-01-15T01:24:05;100078.75;;;2.72;100.00
42125;BME280;27787;44.594;11.046;2024-01-15T01:26:49;100083.00;;;2.68;100.00
42125;BME280;27787;44.594;11.046;2024-01-15T01:29:33;100083.78;;;2.64;100.00
42125;BME280;27787;44.594;11.046;2024-01-15T01:32:17;100071.72;;;2.67;100.00
42125;BME280;27787;44.594;11.046;2024-01-15T01:35:01;100072.59;;;2.68;100.00
42125;BME280;27787;44.594;11.046;2024-01-15T01:37:46;100089.91;;;2.66;100.00
42125;BME280;27787;44.594;11.046;2024-01-15T01:40:30;100070.75;;;2.64;100.00
42125;BME280;27787;44.594;11.046;2024-01-15T01:43:14;100071.56;;;2.61;100.00
42125;BME280;27787;44.594;11.046;2024-01-15T01:46:00;100066.34;;;2.61;100.00
42125;BME280;27787;44.594;11.046;2024-01-15T01:48:45;100055.94;;;2.61;100.00
42125;BME280;27787;44.594;11.046;2024-01-15T01:51:29;100062.88;;;2.61;100.00
42125;BME280;27787;44.594;11.046;2024-01-15T01:54:14;100056.22;;;2.42;100.00
42125;BME280;27787;44.594;11.046;2024-01-15T01:56:58;100045.50;;;2.31;100.00
42125;BME280;27787;44.594;11.046;2024-01-15T01:59:44;100046.31;;;2.29;100.00
42125;BME280;27787;44.594;11.046;2024-01-15T02:02:28;100051.50;;;2.29;100.00
42125;BME280;27787;44.594;11.046;2024-01-15T02:05:13;100066.59;;;2.11;100.00
42125;BME280;27787;44.594;11.046;2024-01-15T02:07:58;100077.31;;;1.93;100.00
42125;BME280;27787;44.594;11.046;2024-01-15T02:10:42;100069.97;;;1.80;100.00
42125;BME280;27787;44.594;11.046;2024-01-15T02:13:26;100066.28;;;1.71;100.00
42125;BME280;27787;44.594;11.046;2024-01-15T02:16:10;100056.00;;;1.76;100.00
42125;BME280;27787;44.594;11.046;2024-01-15T02:18:55;100063.47;;;1.94;100.00
42125;BME280;27787;44.594;11.046;2024-01-15T02:21:39;100047.34;;;2.05;100.00
42125;BME280;27787;44.594;11.046;2024-01-15T02:24:23;100037.44;;;2.22;100.00
42125;BME280;27787;44.594;11.046;2024-01-15T02:27:08;100033.56;;;2.38;100.00
42125;BME280;27787;44.594;11.046;2024-01-15T02:29:53;100039.84;;;2.46;100.00
42125;BME280;27787;44.594;11.046;2024-01-15T02:32:38;100037.53;;;2.57;100.00
42125;BME280;27787;44.594;11.046;2024-01-15T02:35:22;100034.19;;;2.61;100.00
42125;BME280;27787;44.594;11.046;2024-01-15T02:38:06;100031.78;;;2.69;100.00
42125;BME280;27787;44.594;11.046;2024-01-15T02:40:51;100031.16;;;2.77;100.00
42125;BME280;27787;44.594;11.046;2024-01-15T02:43:35;100038.09;;;2.77;100.00
42125;BME280;27787;44.594;11.046;2024-01-15T02:46:19;100041.53;;;2.76;100.00
42125;BME280;27787;44.594;11.046;2024-01-15T02:49:04;100032.97;;;2.80;100.00
42125;BME280;27787;44.594;11.046;2024-01-15T02:51:48;100014.56;;;2.74;100.00
42125;BME280;27787;44.594;11.046;2024-01-15T02:54:32;100011.81;;;2.69;100.00
42125;BME280;27787;44.594;11.046;2024-01-15T02:57:16;100008.34;;;2.69;100.00
42125;BME280;27787;44.594;11.046;2024-01-15T02:59:59;99995.06;;;2.59;100.00
42125;BME280;27787;44.594;11.046;2024-01-15T03:02:44;99986.00;;;2.45;100.00
42125;BME280;27787;44.594;11.046;2024-01-15T03:05:28;99992.78;;;2.39;100.00
42125;BME280;27787;44.594;11.046;2024-01-15T03:08:12;99991.09;;;2.41;100.00
42125;BME280;27787;44.594;11.046;2024-01-15T03:10:57;99979.94;;;2.46;100.00
42125;BME280;27787;44.594;11.046;2024-01-15T03:13:41;99984.69;;;2.61;100.00
42125;BME280;27787;44.594;11.046;2024-01-15T03:16:26;99978.84;;;2.70;100.00
42125;BME280;27787;44.594;11.046;2024-01-15T03:19:10;99983.22;;;2.72;100.00
42125;BME280;27787;44.594;11.046;2024-01-15T03:21:54;99976.44;;;2.77;100.00
42125;BME280;27787;44.594;11.046;2024-01-15T03:24:38;99971.34;;;2.82;100.00
42125;BME280;27787;44.594;11.046;2024-01-15T03:27:23;99959.34;;;2.88;100.00
42125;BME280;27787;44.594;11.046;2024-01-15T03:30:08;99948.97;;;2.90;100.00
42125;BME280;27787;44.594;11.046;2024-01-15T03:32:52;99942.00;;;2.89;100.00
42125;BME280;27787;44.594;11.046;2024-01-15T03:35:36;99932.53;;;2.94;100.00
42125;BME280;27787;44.594;11.046;2024-01-15T03:38:20;99926.56;;;2.98;100.00
42125;BME280;27787;44.594;11.046;2024-01-15T03:41:04;99930.16;;;3.03;100.00
42125;BME280;27787;44.594;11.046;2024-01-15T03:43:48;99919.78;;;3.05;100.00
42125;BME280;27787;44.594;11.046;2024-01-15T03:46:32;99904.22;;;3.09;100.00
42125;BME280;27787;44.594;11.046;2024-01-15T03:49:16;99895.50;;;3.07;100.00
42125;BME280;27787;44.594;11.046;2024-01-15T03:52:01;99874.47;;;3.00;100.00
42125;BME280;27787;44.594;11.046;2024-01-15T03:54:45;99878.75;;;2.97;100.00
42125;BME280;27787;44.594;11.046;2024-01-15T03:57:29;99884.75;;;2.93;100.00
42125;BME280;27787;44.594;11.046;2024-01-15T04:00:14;99883.84;;;2.91;100.00
42125;BME280;27787;44.594;11.046;2024-01-15T04:03:01;99884.84;;;2.98;100.00
42125;BME280;27787;44.594;11.046;2024-01-15T04:05:45;99878.72;;;2.96;100.00
42125;BME280;27787;44.594;11.046;2024-01-15T04:08:29;99889.19;;;2.97;100.00
42125;BME280;27787;44.594;11.046;2024-01-15T04:11:14;99870.19;;;3.02;100.00
42125;BME280;27787;44.594;11.046;2024-01-15T04:13:57;99878.00;;;3.02;100.00
42125;BME280;27787;44.594;11.046;2024-01-15T04:16:42;99878.69;;;2.94;100.00
42125;BME280;27787;44.594;11.046;2024-01-15T04:19:26;99878.47;;;2.85;100.00
42125;BME280;27787;44.594;11.046;2024-01-15T04:22:10;99871.81;;;2.60;100.00
42125;BME280;27787;44.594;11.046;2024-01-15T04:24:54;99876.84;;;2.54;100.00
42125;BME280;27787;44.594;11.046;2024-01-15T04:27:38;99874.19;;;2.53;100.00
42125;BME280;27787;44.594;11.046;2024-01-15T04:30:22;99869.06;;;2.56;100.00
42125;BME280;27787;44.594;11.046;2024-01-15T04:33:06;99868.75;;;2.44;100.00
42125;BME280;27787;44.594;11.046;2024-01-15T04:35:50;99878.81;;;2.30;100.00
42125;BME280;27787;44.594;11.046;2024-01-15T04:38:34;99888.00;;;2.16;100.00
42125;BME280;27787;44.594;11.046;2024-01-15T04:41:20;99887.78;;;2.08;100.00
42125;BME280;27787;44.594;11.046;2024-01-15T04:44:04;99889.50;;;2.07;100.00
42125;BME280;27787;44.594;11.046;2024-01-15T04:46:47;99876.22;;;1.97;100.00
42125;BME280;27787;44.594;11.046;2024-01-15T04:49:31;99857.97;;;1.95;100.00
42125;BME280;27787;44.594;11.046;2024-01-15T04:52:15;99855.47;;;2.00;100.00
42125;BME280;27787;44.594;11.046;2024-01-15T04:54:59;99837.22;;;1.98;100.00
42125;BME280;27787;44.594;11.046;2024-01-15T04:57:44;99837.28;;;2.01;100.00
42125;BME280;27787;44.594;11.046;2024-01-15T05:00:28;99827.09;;;2.09;100.00
42125;BME280;27787;44.594;11.046;2024-01-15T05:03:12;99826.56;;;2.22;100.00
42125;BME280;27787;44.594;11.046;2024-01-15T05:05:56;99833.78;;;2.34;100.00
42125;BME280;27787;44.594;11.046;2024-01-15T05:08:39;99835.94;;;2.50;100.00
42125;BME280;27787;44.594;11.046;2024-01-15T05:11:24;99825.84;;;2.64;100.00
42125;BME280;27787;44.594;11.046;2024-01-15T05:14:08;99829.63;;;2.77;100.00
42125;BME280;27787;44.594;11.046;2024-01-15T05:16:52;99818.44;;;2.81;100.00
42125;BME280;27787;44.594;11.046;2024-01-15T05:19:36;99824.75;;;2.90;100.00
42125;BME280;27787;44.594;11.046;2024-01-15T05:22:20;99822.44;;;3.04;100.00
42125;BME280;27787;44.594;11.046;2024-01-15T05:25:05;99818.19;;;3.09;100.00
42125;BME280;27787;44.594;11.046;2024-01-15T05:27:50;99829.34;;;3.02;100.00
42125;BME280;27787;44.594;11.046;2024-01-15T05:30:34;99829.09;;;2.91;100.00
42125;BME280;27787;44.594;11.046;2024-01-15T05:33:18;99839.22;;;2.78;100.00
42125;BME280;27787;44.594;11.046;2024-01-15T05:36:03;99857.94;;;2.61;100.00
42125;BME280;27787;44.594;11.046;2024-01-15T05:38:47;99865.56;;;2.55;100.00
42125;BME280;27787;44.594;11.046;2024-01-15T05:41:32;99867.50;;;2.62;100.00
42125;BME280;27787;44.594;11.046;2024-01-15T05:44:16;99857.25;;;2.70;100.00
42125;BME280;27787;44.594;11.046;2024-01-15T05:47:00;99847.91;;;2.78;100.00
42125;BME280;27787;44.594;11.046;2024-01-15T05:49:44;99838.63;;;2.89;100.00
42125;BME280;27787;44.594;11.046;2024-01-15T05:52:28;99832.72;;;2.98;100.00
42125;BME280;27787;44.594;11.046;2024-01-15T05:55:12;99828.69;;;3.12;100.00
42125;BME280;27787;44.594;11.046;2024-01-15T05:57:56;99822.81;;;3.22;100.00
42125;BME280;27787;44.594;11.046;2024-01-15T06:00:40;99832.56;;;3.30;100.00
42125;BME280;27787;44.594;11.046;2024-01-15T06:03:24;99839.63;;;3.35;100.00
42125;BME280;27787;44.594;11.046;2024-01-15T06:06:09;99848.28;;;3.34;100.00
42125;BME280;27787;44.594;11.046;2024-01-15T06:08:53;99850.81;;;3.30;100.00
42125;BME280;27787;44.594;11.046;2024-01-15T06:11:36;99845.53;;;3.27;100.00
42125;BME280;27787;44.594;11.046;2024-01-15T06:14:20;99840.38;;;3.30;100.00
42125;BME280;27787;44.594;11.046;2024-01-15T06:17:04;99843.91;;;3.32;100.00
42125;BME280;27787;44.594;11.046;2024-01-15T06:19:49;99839.59;;;3.34;100.00
42125;BME280;27787;44.594;11.046;2024-01-15T06:22:33;99838.75;;;3.35;100.00
42125;BME280;27787;44.594;11.046;2024-01-15T06:25:17;99839.63;;;3.35;100.00
42125;BME280;27787;44.594;11.046;2024-01-15T06:28:01;99840.50;;;3.36;100.00
42125;BME280;27787;44.594;11.046;2024-01-15T06:30:45;99827.59;;;3.42;100.00
42125;BME280;27787;44.594;11.046;2024-01-15T06:33:29;99827.63;;;3.43;100.00
42125;BME280;27787;44.594;11.046;2024-01-15T06:36:14;99835.50;;;3.46;100.00
42125;BME280;27787;44.594;11.046;2024-01-15T06:39:00;99837.28;;;3.47;100.00
42125;BME280;27787;44.594;11.046;2024-01-15T06:41:44;99830.44;;;3.52;100.00
42125;BME280;27787;44.594;11.046;2024-01-15T06:44:28;99827.81;;;3.52;100.00
42125;BME280;27787;44.594;11.046;2024-01-15T06:47:12;99822.56;;;3.51;100.00
42125;BME280;27787;44.594;11.046;2024-01-15T06:49:56;99811.16;;;3.46;100.00
42125;BME280;27787;44.594;11.046;2024-01-15T06:52:40;99806.72;;;3.40;100.00
42125;BME280;27787;44.594;11.046;2024-01-15T06:55:24;99805.72;;;3.35;100.00
42125;BME280;27787;44.594;11.046;2024-01-15T06:58:09;99813.50;;;3.34;100.00
42125;BME280;27787;44.594;11.046;2024-01-15T07:00:53;99812.50;;;3.27;100.00
42125;BME280;27787;44.594;11.046;2024-01-15T07:03:38;99806.34;;;3.25;100.00
42125;BME280;27787;44.594;11.046;2024-01-15T07:06:22;99802.16;;;3.30;100.00
42125;BME280;27787;44.594;11.046;2024-01-15T07:09:06;99813.66;;;3.40;100.00
42125;BME280;27787;44.594;11.046;2024-01-15T07:11:52;99812.03;;;3.46;100.00
42125;BME280;27787;44.594;11.046;2024-01-15T07:14:36;99821.59;;;3.46;100.00
42125;BME280;27787;44.594;11.046;2024-01-15T07:17:19;99824.22;;;3.47;100.00
42125;BME280;27787;44.594;11.046;2024-01-15T07:20:08;99835.50;;;3.46;100.00
42125;BME280;27787;44.594;11.046;2024-01-15T07:22:52;99829.34;;;3.43;100.00
42125;BME280;27787;44.594;11.046;2024-01-15T07:25:37;99837.06;;;3.38;100.00
42125;BME280;27787;44.594;11.046;2024-01-15T07:28:21;99836.13;;;3.35;100.00
42125;BME280;27787;44.594;11.046;2024-01-15T07:31:05;99841.28;;;3.32;100.00
42125;BME280;27787;44.594;11.046;2024-01-15T07:33:50;99842.94;;;3.27;100.00
42125;BME280;27787;44.594;11.046;2024-01-15T07:36:34;99812.44;;;3.24;100.00
42125;BME280;27787;44.594;11.046;2024-01-15T07:39:18;99819.59;;;3.34;100.00
42125;BME280;27787;44.594;11.046;2024-01-15T07:42:02;99818.13;;;3.47;100.00
42125;BME280;27787;44.594;11.046;2024-01-15T07:44:46;99821.78;;;3.55;100.00
42125;BME280;27787;44.594;11.046;2024-01-15T07:47:31;99820.25;;;3.65;100.00
42125;BME280;27787;44.594;11.046;2024-01-15T07:50:16;99832.47;;;3.67;100.00
42125;BME280;27787;44.594;11.046;2024-01-15T07:53:00;99837.69;;;3.67;100.00
42125;BME280;27787;44.594;11.046;2024-01-15T07:55:44;99846.41;;;3.68;100.00
42125;BME280;27787;44.594;11.046;2024-01-15T07:58:30;99846.28;;;3.63;100.00
42125;BME280;27787;44.594;11.046;2024-01-15T08:01:14;99827.91;;;3.57;100.00
42125;BME280;27787;44.594;11.046;2024-01-15T08:03:58;99833.25;;;3.63;100.00
42125;BME280;27787;44.594;11.046;2024-01-15T08:06:42;99829.94;;;3.72;100.00
42125;BME280;27787;44.594;11.046;2024-01-15T08:09:26;99833.59;;;3.80;100.00
42125;BME280;27787;44.594;11.046;2024-01-15T08:12:10;99835.44;;;3.87;100.00
42125;BME280;27787;44.594;11.046;2024-01-15T08:14:55;99825.88;;;3.88;100.00
42125;BME280;27787;44.594;11.046;2024-01-15T08:17:39;99827.50;;;3.79;100.00
42125;BME280;27787;44.594;11.046;2024-01-15T08:20:23;99835.09;;;3.67;100.00
42125;BME280;27787;44.594;11.046;2024-01-15T08:23:07;99835.75;;;3.57;100.00
42125;BME280;27787;44.594;11.046;2024-01-15T08:25:51;99845.16;;;3.50;100.00
42125;BME280;27787;44.594;11.046;2024-01-15T08:28:36;99841.81;;;3.56;100.00
42125;BME280;27787;44.594;11.046;2024-01-15T08:31:20;99841.13;;;3.65;100.00
42125;BME280;27787;44.594;11.046;2024-01-15T08:34:04;99841.28;;;3.74;100.00
42125;BME280;27787;44.594;11.046;2024-01-15T08:36:48;99841.34;;;3.77;100.00
42125;BME280;27787;44.594;11.046;2024-01-15T08:39:32;99831.91;;;3.83;100.00
42125;BME280;27787;44.594;11.046;2024-01-15T08:42:16;99816.41;;;3.91;100.00
42125;BME280;27787;44.594;11.046;2024-01-15T08:45:01;99819.16;;;3.99;100.00
42125;BME280;27787;44.594;11.046;2024-01-15T08:47:45;99824.44;;;4.03;100.00
42125;BME280;27787;44.594;11.046;2024-01-15T08:50:30;99842.81;;;4.08;100.00
42125;BME280;27787;44.594;11.046;2024-01-15T08:53:15;99839.38;;;4.10;100.00
42125;BME280;27787;44.594;11.046;2024-01-15T08:55:59;99843.78;;;4.13;100.00
42125;BME280;27787;44.594;11.046;2024-01-15T08:58:43;99842.91;;;4.12;100.00
42125;BME280;27787;44.594;11.046;2024-01-15T09:01:27;99841.94;;;4.07;100.00
42125;BME280;27787;44.594;11.046;2024-01-15T09:04:12;99848.03;;;4.08;100.00
42125;BME280;27787;44.594;11.046;2024-01-15T09:06:56;99860.28;;;4.10;100.00
42125;BME280;27787;44.594;11.046;2024-01-15T09:09:40;99862.06;;;4.13;100.00
42125;BME280;27787;44.594;11.046;2024-01-15T09:12:26;99856.00;;;4.15;100.00
42125;BME280;27787;44.594;11.046;2024-01-15T09:15:10;99856.09;;;4.20;100.00
42125;BME280;27787;44.594;11.046;2024-01-15T09:17:54;99836.09;;;4.21;100.00
42125;BME280;27787;44.594;11.046;2024-01-15T09:20:38;99848.28;;;4.22;100.00
42125;BME280;27787;44.594;11.046;2024-01-15T09:23:23;99848.41;;;4.29;100.00
42125;BME280;27787;44.594;11.046;2024-01-15T09:26:08;99849.41;;;4.34;100.00
42125;BME280;27787;44.594;11.046;2024-01-15T09:28:53;99841.41;;;4.27;100.00
42125;BME280;27787;44.594;11.046;2024-01-15T09:31:37;99852.69;;;4.24;100.00
42125;BME280;27787;44.594;11.046;2024-01-15T09:34:21;99844.91;;;4.29;100.00
42125;BME280;27787;44.594;11.046;2024-01-15T09:37:06;99837.13;;;4.30;100.00
42125;BME280;27787;44.594;11.046;2024-01-15T09:39:50;99832.00;;;4.36;100.00
42125;BME280;27787;44.594;11.046;2024-01-15T09:42:35;99834.75;;;4.44;100.00
42125;BME280;27787;44.594;11.046;2024-01-15T09:45:20;99838.47;;;4.57;100.00
42125;BME280;27787;44.594;11.046;2024-01-15T09:48:04;99840.34;;;4.67;100.00
42125;BME280;27787;44.594;11.046;2024-01-15T09:50:49;99841.28;;;4.69;100.00
42125;BME280;27787;44.594;11.046;2024-01-15T09:53:34;99830.97;;;4.80;100.00
42125;BME280;27787;44.594;11.046;2024-01-15T09:56:19;99828.59;;;4.95;100.00
42125;BME280;27787;44.594;11.046;2024-01-15T09:59:03;99825.16;;;4.97;100.00
42125;BME280;27787;44.594;11.046;2024-01-15T10:01:50;99817.41;;;5.05;100.00
42125;BME280;27787;44.594;11.046;2024-01-15T10:04:36;99820.97;;;5.09;100.00
42125;BME280;27787;44.594;11.046;2024-01-15T10:07:21;99819.28;;;5.14;100.00
42125;BME280;27787;44.594;11.046;2024-01-15T10:10:06;99822.78;;;5.16;100.00
42125;BME280;27787;44.594;11.046;2024-01-15T10:12:51;99817.69;;;5.26;100.00
42125;BME280;27787;44.594;11.046;2024-01-15T10:15:37;99816.03;;;5.33;100.00
42125;BME280;27787;44.594;11.046;2024-01-15T10:18:22;99811.66;;;5.33;100.00
42125;BME280;27787;44.594;11.046;2024-01-15T10:21:07;99801.97;;;5.23;100.00
42125;BME280;27787;44.594;11.046;2024-01-15T10:23:52;99799.25;;;5.17;100.00
42125;BME280;27787;44.594;11.046;2024-01-15T10:26:36;99796.63;;;5.16;100.00
42125;BME280;27787;44.594;11.046;2024-01-15T10:29:20;99793.97;;;5.13;100.00
42125;BME280;27787;44.594;11.046;2024-01-15T10:32:07;99796.56;;;5.10;100.00
42125;BME280;27787;44.594;11.046;2024-01-15T10:34:53;99791.34;;;5.11;100.00
42125;BME280;27787;44.594;11.046;2024-01-15T10:37:38;99771.31;;;5.15;100.00
42125;BME280;27787;44.594;11.046;2024-01-15T10:40:22;99773.09;;;5.16;100.00
42125;BME280;27787;44.594;11.046;2024-01-15T10:43:06;99760.03;;;5.19;100.00
42125;BME280;27787;44.594;11.046;2024-01-15T10:45:50;99773.22;;;5.25;100.00
42125;BME280;27787;44.594;11.046;2024-01-15T10:48:35;99760.13;;;5.25;100.00
42125;BME280;27787;44.594;11.046;2024-01-15T10:51:19;99756.69;;;5.29;100.00
42125;BME280;27787;44.594;11.046;2024-01-15T10:54:04;99755.03;;;5.36;100.00
42125;BME280;27787;44.594;11.046;2024-01-15T10:56:52;99753.34;;;5.41;100.00
42125;BME280;27787;44.594;11.046;2024-01-15T10:59:38;99760.38;;;5.46;100.00
42125;BME280;27787;44.594;11.046;2024-01-15T11:02:23;99745.53;;;5.47;100.00
42125;BME280;27787;44.594;11.046;2024-01-15T11:05:08;99727.22;;;5.45;100.00
42125;BME280;27787;44.594;11.046;2024-01-15T11:07:56;99721.97;;;5.47;100.00
42125;BME280;27787;44.594;11.046;2024-01-15T11:10:48;99714.13;;;5.45;100.00
42125;BME280;27787;44.594;11.046;2024-01-15T11:16:20;99697.63;;;5.52;100.00
42125;BME280;27787;44.594;11.046;2024-01-15T11:19:05;99692.44;;;5.58;100.00
42125;BME280;27787;44.594;11.046;2024-01-15T11:21:51;99682.91;;;5.62;100.00
42125;BME280;27787;44.594;11.046;2024-01-15T11:24:40;99675.97;;;5.67;100.00
42125;BME280;27787;44.594;11.046;2024-01-15T11:27:44;99675.09;;;5.70;100.00
42125;BME280;27787;44.594;11.046;2024-01-15T11:30:31;99667.31;;;5.74;100.00
42125;BME280;27787;44.594;11.046;2024-01-15T11:33:32;99666.47;;;5.80;100.00
42125;BME280;27787;44.594;11.046;2024-01-15T11:36:17;99662.13;;;5.83;100.00
42125;BME280;27787;44.594;11.046;2024-01-15T11:42:11;99665.81;;;5.99;100.00
42125;BME280;27787;44.594;11.046;2024-01-15T11:44:56;99656.25;;;6.04;100.00
42125;BME280;27787;44.594;11.046;2024-01-15T11:50:50;99640.63;;;6.18;100.00
42125;BME280;27787;44.594;11.046;2024-01-15T11:53:47;99636.28;;;6.23;100.00
42125;BME280;27787;44.594;11.046;2024-01-15T11:56:32;99621.47;;;6.27;100.00
42125;BME280;27787;44.594;11.046;2024-01-15T11:59:16;99627.59;;;6.29;100.00
42125;BME280;27787;44.594;11.046;2024-01-15T12:02:02;99623.25;;;6.31;100.00
42125;BME280;27787;44.594;11.046;2024-01-15T12:04:46;99616.25;;;6.31;100.00
42125;BME280;27787;44.594;11.046;2024-01-15T12:07:31;99616.28;;;6.37;100.00
42125;BME280;27787;44.594;11.046;2024-01-15T12:10:17;99616.28;;;6.36;100.00
42125;BME280;27787;44.594;11.046;2024-01-15T12:13:12;99597.94;;;6.37;100.00
42125;BME280;27787;44.594;11.046;2024-01-15T12:15:57;99600.59;;;6.40;100.00
42125;BME280;27787;44.594;11.046;2024-01-15T12:18:42;99608.47;;;6.45;100.00
42125;BME280;27787;44.594;11.046;2024-01-15T12:21:29;99595.41;;;6.51;100.00
42125;BME280;27787;44.594;11.046;2024-01-15T12:24:13;99592.81;;;6.57;99.65
42125;BME280;27787;44.594;11.046;2024-01-15T12:26:56;99583.19;;;6.56;99.82
42125;BME280;27787;44.594;11.046;2024-01-15T12:29:42;99573.56;;;6.57;99.74
42125;BME280;27787;44.594;11.046;2024-01-15T12:32:26;99570.94;;;6.57;99.64
42125;BME280;27787;44.594;11.046;2024-01-15T12:35:11;99543.88;;;6.61;100.00
42125;BME280;27787;44.594;11.046;2024-01-15T12:37:55;99546.53;;;6.68;99.07
42125;BME280;27787;44.594;11.046;2024-01-15T12:40:40;99537.78;;;6.74;99.45
42125;BME280;27787;44.594;11.046;2024-01-15T12:43:24;99533.41;;;6.73;99.58
42125;BME280;27787;44.594;11.046;2024-01-15T12:46:09;99521.19;;;6.72;99.60
42125;BME280;27787;44.594;11.046;2024-01-15T12:48:53;99522.09;;;6.78;98.72
42125;BME280;27787;44.594;11.046;2024-01-15T12:51:37;99520.34;;;6.80;99.29
42125;BME280;27787;44.594;11.046;2024-01-15T12:54:23;99520.34;;;6.84;98.73
42125;BME280;27787;44.594;11.046;2024-01-15T12:57:07;99514.22;;;6.86;98.73
42125;BME280;27787;44.594;11.046;2024-01-15T12:59:54;99509.00;;;6.91;98.31
42125;BME280;27787;44.594;11.046;2024-01-15T13:02:39;99506.38;;;6.91;98.08
42125;BME280;27787;44.594;11.046;2024-01-15T13:05:24;99501.13;;;6.91;98.42
42125;BME280;27787;44.594;11.046;2024-01-15T13:08:10;99501.13;;;6.94;98.63
42125;BME280;27787;44.594;11.046;2024-01-15T13:10:54;99498.50;;;6.97;98.46
42125;BME280;27787;44.594;11.046;2024-01-15T13:13:40;99495.00;;;7.02;98.71
42125;BME280;27787;44.594;11.046;2024-01-15T13:16:24;99496.78;;;7.06;98.33
42125;BME280;27787;44.594;11.046;2024-01-15T13:19:12;99485.41;;;7.09;98.07
42125;BME280;27787;44.594;11.046;2024-01-15T13:21:59;99475.78;;;7.09;98.29
42125;BME280;27787;44.594;11.046;2024-01-15T13:24:44;99477.53;;;7.14;98.21
42125;BME280;27787;44.594;11.046;2024-01-15T13:27:28;99473.16;;;7.14;97.77
42125;BME280;27787;44.594;11.046;2024-01-15T13:30:12;99466.19;;;7.16;97.93
42125;BME280;27787;44.594;11.046;2024-01-15T13:32:57;99461.78;;;7.20;97.59
42125;BME280;27787;44.594;11.046;2024-01-15T13:35:41;99467.03;;;7.21;97.38
42125;BME280;27787;44.594;11.046;2024-01-15T13:38:26;99465.28;;;7.23;97.14
42125;BME280;27787;44.594;11.046;2024-01-15T13:41:11;99474.91;;;7.24;97.06
42125;BME280;27787;44.594;11.046;2024-01-15T13:43:55;99459.16;;;7.24;97.06
42125;BME280;27787;44.594;11.046;2024-01-15T13:46:39;99464.41;;;7.27;96.97
42125;BME280;27787;44.594;11.046;2024-01-15T13:49:23;99467.03;;;7.30;96.96
42125;BME280;27787;44.594;11.046;2024-01-15T13:52:07;99457.41;;;7.34;97.02
42125;BME280;27787;44.594;11.046;2024-01-15T13:54:51;99454.78;;;7.43;97.43
42125;BME280;27787;44.594;11.046;2024-01-15T13:57:36;99439.88;;;7.51;96.85
42125;BME280;27787;44.594;11.046;2024-01-15T14:00:20;99439.88;;;7.60;96.60
42125;BME280;27787;44.594;11.046;2024-01-15T14:03:04;99438.09;;;7.67;96.64
42125;BME280;27787;44.594;11.046;2024-01-15T14:05:49;99441.59;;;7.75;96.32
42125;BME280;27787;44.594;11.046;2024-01-15T14:08:35;99434.56;;;7.79;95.29
42125;BME280;27787;44.594;11.046;2024-01-15T14:11:20;99436.31;;;7.78;95.02
42125;BME280;27787;44.594;11.046;2024-01-15T14:14:04;99432.81;;;7.79;95.06
42125;BME280;27787;44.594;11.046;2024-01-15T14:16:49;99424.06;;;7.83;95.32
42125;BME280;27787;44.594;11.046;2024-01-15T14:19:33;99420.53;;;7.95;95.95
42125;BME280;27787;44.594;11.046;2024-01-15T14:22:17;99411.72;;;8.01;94.94
42125;BME280;27787;44.594;11.046;2024-01-15T14:25:01;99396.78;;;8.06;94.29
42125;BME280;27787;44.594;11.046;2024-01-15T14:27:46;99401.16;;;8.13;93.90
42125;BME280;27787;44.594;11.046;2024-01-15T14:30:31;99399.38;;;8.21;93.39